If you wish to contribute or participate in the discussions about articles you are invited to join SKYbrary as a registered user

 Actions

Noshahr Airport

From SKYbrary Wiki

OINN
Airport
ICAO: OINN – IATA: NSH
Summary
Name Noshahr Airport
Region Middle East
Territory Iran IR.gif
Location Nowshahr, Mazandaran Province
Serving Chalus
Elevation -18.593 m
-61 ft-18.593 m
Coordinates 36° 39' 36.68" N, 51° 28' 9.01" E
Runways
Designator Length Width Surface ROPS
10/28 1884 m6,181.102 ft
35 m114.829 ft
ASP /


METAR
Observation OINN 250700Z 33008KT 9999 FEW025TCU 31/26 Q1009
Station Noshahr
Date/Time 25 June 2019 07:00:00
Wind direction 330°
Wind speed 08 kts
Lowest cloud amount few clouds
Temperature 31°C
Dew point 26°C
Humidity 74%
QNH 1009 hPa
Weather condition n/a

Airport serving Nowshahr and Chalus in northern Iran.

Climatology

Humid sub-tropical climate (Köppen climate classification Csa).

Maps

Terrain

Loading map...

Airport Layout

Loading map...


Accidents & Serious Incidents at or in vicinity of OINN

None on SKYbrary